createdAt,value
2019-01-20T00:00:50.007Z,46.72
2019-01-20T00:04:55.677Z,46.73
2019-01-20T00:09:01.372Z,46.76
2019-01-20T00:13:08.756Z,46.64
2019-01-20T00:17:14.546Z,46.89
2019-01-20T00:21:21.202Z,46.47
2019-01-20T00:25:26.872Z,46.72
2019-01-20T00:29:32.635Z,46.90
2019-01-20T00:33:38.405Z,46.80
2019-01-20T00:37:44.096Z,46.85
2019-01-20T00:41:49.779Z,46.79
2019-01-20T00:45:55.484Z,46.95
2019-01-20T00:50:01.170Z,47.42
2019-01-20T00:54:07.313Z,47.97
2019-01-20T00:58:13.046Z,47.88
2019-01-20T01:02:18.740Z,48.08
2019-01-20T01:06:24.507Z,48.06
2019-01-20T01:10:30.334Z,47.91
2019-01-20T01:14:36.098Z,47.99
2019-01-20T01:18:41.794Z,48.08
2019-01-20T01:22:50.463Z,48.08
2019-01-20T01:26:56.163Z,48.00
2019-01-20T01:31:01.947Z,48.20
2019-01-20T01:35:08.649Z,47.94
2019-01-20T01:39:14.343Z,48.35
2019-01-20T01:43:46.910Z,48.21
2019-01-20T01:47:52.634Z,47.62
2019-01-20T01:51:58.323Z,48.01
2019-01-20T01:56:04.261Z,48.06
2019-01-20T02:00:20.209Z,47.75
2019-01-20T02:04:25.910Z,47.99
2019-01-20T02:08:31.908Z,47.85
2019-01-20T02:12:37.737Z,48.31
2019-01-20T02:16:43.440Z,48.55
2019-01-20T02:20:49.143Z,49.71
2019-01-20T02:24:54.822Z,49.28
2019-01-20T02:29:00.539Z,50.69
2019-01-20T02:33:07.363Z,50.11
2019-01-20T02:37:13.065Z,49.72
2019-01-20T02:41:18.768Z,49.63
2019-01-20T02:45:24.535Z,50.40
2019-01-20T02:49:30.242Z,50.09
2019-01-20T02:53:35.960Z,50.47
2019-01-20T02:57:41.729Z,50.15
2019-01-20T03:01:47.521Z,50.08
2019-01-20T03:05:53.202Z,50.34
2019-01-20T03:09:58.916Z,49.70
2019-01-20T03:14:04.928Z,49.55
2019-01-20T03:18:10.629Z,49.48
2019-01-20T03:22:16.316Z,49.23
2019-01-20T03:26:22.018Z,49.36
2019-01-20T03:30:27.727Z,49.49
2019-01-20T03:34:33.418Z,48.81
2019-01-20T03:38:39.121Z,49.42
2019-01-20T03:42:44.977Z,49.48
2019-01-20T03:46:50.683Z,50.13
2019-01-20T03:50:56.389Z,49.79
2019-01-20T03:55:02.227Z,50.34
2019-01-20T03:59:07.995Z,50.55
2019-01-20T04:03:13.696Z,50.38
2019-01-20T04:07:19.388Z,50.20
2019-01-20T04:11:25.085Z,49.02
2019-01-20T04:15:30.925Z,49.00
2019-01-20T04:19:36.613Z,48.97
2019-01-20T04:23:42.302Z,49.22
2019-01-20T04:27:47.974Z,49.63
2019-01-20T04:31:53.657Z,49.51
2019-01-20T04:35:59.364Z,50.41
2019-01-20T04:40:09.507Z,49.94
2019-01-20T04:44:15.193Z,49.64
2019-01-20T04:48:20.908Z,49.96
2019-01-20T04:52:26.601Z,48.72
2019-01-20T04:56:32.290Z,49.15
2019-01-20T05:00:37.990Z,48.35
2019-01-20T05:04:43.666Z,48.84
2019-01-20T05:08:49.366Z,48.18
2019-01-20T05:12:55.137Z,48.11
2019-01-20T05:17:00.831Z,48.03
2019-01-20T05:21:06.505Z,48.59
2019-01-20T05:25:13.618Z,49.15
2019-01-20T05:29:19.310Z,49.28
2019-01-20T05:33:25.008Z,49.24
2019-01-20T05:37:30.792Z,50.44
2019-01-20T05:41:36.482Z,53.10
2019-01-20T05:45:42.254Z,52.02
2019-01-20T05:49:47.956Z,50.49
2019-01-20T05:53:53.647Z,50.11
2019-01-20T05:57:59.345Z,49.34
2019-01-20T06:02:05.215Z,48.60
2019-01-20T06:06:10.931Z,48.16
2019-01-20T06:10:16.800Z,48.09
2019-01-20T06:14:22.491Z,47.58
2019-01-20T06:18:28.255Z,47.73
2019-01-20T06:22:34.004Z,48.36
2019-01-20T06:26:39.705Z,48.09
2019-01-20T06:30:45.403Z,48.42
2019-01-20T06:34:53.037Z,48.14
2019-01-20T06:38:59.192Z,47.89
2019-01-20T06:43:05.075Z,48.43
2019-01-20T06:47:10.777Z,47.42
2019-01-20T06:51:16.691Z,47.09
2019-01-20T06:55:22.592Z,46.88
2019-01-20T06:59:28.273Z,46.76
2019-01-20T07:03:34.058Z,46.76
2019-01-20T07:07:40.019Z,46.87
2019-01-20T07:11:45.725Z,46.96
2019-01-20T07:15:51.382Z,46.93
2019-01-20T07:19:57.923Z,47.83
2019-01-20T07:24:03.632Z,47.71
2019-01-20T07:28:09.397Z,46.94
2019-01-20T07:32:18.167Z,47.47
2019-01-20T07:36:25.469Z,47.85
2019-01-20T07:40:31.687Z,47.72
2019-01-20T07:44:37.446Z,47.79
2019-01-20T07:48:43.210Z,48.05
2019-01-20T07:52:49.993Z,47.33
2019-01-20T07:56:55.739Z,47.37
2019-01-20T08:01:01.415Z,47.13
2019-01-20T08:05:09.108Z,46.78
2019-01-20T08:09:14.806Z,46.24
2019-01-20T08:13:24.354Z,45.74
2019-01-20T08:17:27.899Z,45.89
2019-01-20T08:21:33.577Z,45.65
2019-01-20T08:25:39.425Z,45.92
2019-01-20T08:29:45.106Z,46.05
2019-01-20T08:33:50.923Z,45.43
2019-01-20T08:37:56.617Z,45.23
2019-01-20T08:42:02.648Z,45.12
2019-01-20T08:46:15.711Z,45.30
2019-01-20T08:50:21.498Z,45.69
2019-01-20T08:54:27.196Z,45.11
2019-01-20T08:58:32.882Z,45.36
2019-01-20T09:02:38.674Z,45.58
2019-01-20T09:06:45.645Z,45.70
2019-01-20T09:10:51.339Z,45.49
2019-01-20T09:14:57.100Z,44.83
2019-01-20T09:19:02.784Z,45.14
2019-01-20T09:23:08.544Z,45.18
2019-01-20T09:27:14.238Z,44.90
2019-01-20T09:31:19.952Z,44.26
2019-01-20T09:35:27.357Z,44.25
2019-01-20T09:39:33.182Z,44.31
2019-01-20T09:43:38.948Z,43.98
2019-01-20T09:47:44.642Z,43.60
2019-01-20T09:51:50.338Z,43.57
2019-01-20T09:55:56.034Z,43.24
2019-01-20T10:00:01.731Z,42.97
2019-01-20T10:04:07.490Z,43.34
2019-01-20T10:08:13.700Z,43.23
2019-01-20T10:12:19.401Z,42.97
2019-01-20T10:16:25.064Z,43.44
2019-01-20T10:20:33.257Z,44.05
2019-01-20T10:24:39.909Z,45.73
2019-01-20T10:28:45.897Z,50.35
2019-01-20T10:32:51.587Z,46.59
2019-01-20T10:37:00.071Z,46.91
2019-01-20T10:41:06.169Z,44.72
2019-01-20T10:45:12.554Z,46.54
2019-01-20T10:49:18.270Z,47.92
2019-01-20T10:53:24.023Z,47.95
2019-01-20T10:57:29.731Z,45.49
2019-01-20T11:01:35.450Z,50.42
2019-01-20T11:05:41.134Z,44.98
2019-01-20T11:09:46.833Z,43.14
2019-01-20T11:13:52.535Z,43.24
2019-01-20T11:17:58.283Z,46.54
2019-01-20T11:22:04.063Z,41.77
2019-01-20T11:26:09.824Z,41.64
2019-01-20T11:30:16.026Z,42.46
2019-01-20T11:35:48.535Z,42.31
2019-01-20T11:39:54.307Z,44.69
2019-01-20T11:44:00.004Z,41.64
2019-01-20T11:48:23.386Z,44.41
2019-01-20T11:52:49.782Z,44.76
2019-01-20T11:56:55.485Z,42.50
2019-01-20T12:01:01.211Z,42.07
2019-01-20T12:05:11.344Z,44.56
2019-01-20T12:09:17.040Z,44.76
2019-01-20T12:13:49.635Z,47.01
2019-01-20T12:17:55.398Z,41.99
2019-01-20T12:22:01.148Z,39.28
2019-01-20T12:26:06.867Z,37.58
2019-01-20T12:34:51.833Z,38.38
2019-01-20T12:38:57.517Z,38.69
2019-01-20T12:47:52.914Z,39.48
2019-01-20T12:51:58.600Z,39.73
2019-01-20T12:56:04.406Z,40.14
2019-01-20T13:00:21.389Z,40.69
2019-01-20T13:04:50.923Z,40.79
2019-01-20T13:08:57.613Z,41.70
2019-01-20T13:13:03.457Z,43.03
2019-01-20T13:17:10.124Z,42.03
2019-01-20T13:21:16.622Z,46.44
2019-01-20T13:25:28.314Z,42.69
2019-01-20T13:29:34.018Z,41.47
2019-01-20T13:33:51.738Z,41.74
2019-01-20T13:38:04.408Z,41.97
2019-01-20T13:42:10.099Z,44.11
2019-01-20T13:46:15.821Z,46.67
2019-01-20T13:50:21.924Z,43.98
2019-01-20T13:54:27.599Z,42.08
2019-01-20T13:58:33.297Z,41.81
2019-01-20T14:02:39.059Z,42.08
2019-01-20T14:06:44.796Z,41.96
2019-01-20T14:10:50.491Z,42.21
2019-01-20T14:14:56.196Z,44.36
2019-01-20T14:19:01.934Z,42.62
2019-01-20T14:23:07.766Z,42.68
2019-01-20T14:27:13.466Z,42.48
2019-01-20T14:31:20.149Z,42.39
2019-01-20T14:35:25.956Z,41.81
2019-01-20T14:39:31.652Z,42.11
2019-01-20T14:43:37.411Z,44.60
2019-01-20T14:47:43.115Z,42.08
2019-01-20T14:51:48.863Z,43.72
2019-01-20T14:55:54.529Z,46.96
2019-01-20T15:00:00.233Z,46.14
2019-01-20T15:04:06.247Z,46.08
2019-01-20T15:08:12.013Z,45.48
2019-01-20T15:12:17.702Z,45.70
2019-01-20T15:16:25.384Z,45.94
2019-01-20T15:20:31.103Z,46.52
2019-01-20T15:24:38.240Z,47.58
2019-01-20T15:28:43.941Z,50.88
2019-01-20T15:32:50.604Z,46.61
2019-01-20T15:36:56.328Z,50.68
2019-01-20T15:41:02.038Z,46.73
2019-01-20T15:45:16.324Z,45.32
2019-01-20T15:49:19.673Z,48.22
2019-01-20T15:58:50.960Z,50.16
2019-01-20T16:02:56.813Z,45.63
2019-01-20T16:07:50.447Z,49.10
2019-01-20T16:11:56.155Z,50.32
2019-01-20T16:16:50.036Z,47.22
2019-01-20T16:20:55.771Z,46.97
2019-01-20T16:25:01.459Z,45.04
2019-01-20T16:29:07.160Z,50.72
2019-01-20T16:33:12.946Z,47.81
2019-01-20T16:37:18.658Z,48.15
2019-01-20T16:41:24.430Z,50.13
2019-01-20T16:45:41.636Z,47.85
2019-01-20T16:49:42.239Z,48.01
2019-01-20T16:53:48.027Z,50.88
2019-01-20T16:57:53.739Z,50.63
2019-01-20T17:01:59.624Z,49.26
2019-01-20T17:06:05.310Z,50.56
2019-01-20T17:10:15.616Z,45.44
2019-01-20T17:14:21.329Z,48.27
2019-01-20T17:18:27.051Z,49.46
2019-01-20T17:22:32.721Z,49.37
2019-01-20T17:26:38.499Z,49.51
2019-01-20T17:30:45.024Z,52.78
2019-01-20T17:34:50.794Z,47.09
2019-01-20T17:38:56.570Z,50.10
2019-01-20T17:43:02.377Z,48.93
2019-01-20T17:47:08.373Z,53.08
2019-01-20T17:51:14.172Z,48.74
2019-01-20T17:55:19.945Z,53.32
2019-01-20T17:59:26.696Z,53.01
2019-01-20T18:03:32.426Z,50.00
2019-01-20T18:07:49.981Z,51.29
2019-01-20T18:11:55.741Z,47.63
2019-01-20T18:16:01.595Z,50.31
2019-01-20T18:20:12.038Z,52.62
2019-01-20T18:24:17.704Z,47.47
2019-01-20T18:28:23.465Z,49.47
2019-01-20T18:32:29.243Z,51.74
2019-01-20T18:36:35.029Z,49.32
2019-01-20T18:40:40.891Z,49.43
2019-01-20T18:44:46.573Z,48.65
2019-01-20T18:48:52.466Z,50.36
2019-01-20T18:52:58.238Z,48.38
2019-01-20T18:57:04.142Z,51.79
2019-01-20T19:01:10.374Z,49.76
2019-01-20T19:05:18.470Z,49.83
2019-01-20T19:09:24.185Z,49.43
2019-01-20T19:13:31.110Z,50.93
2019-01-20T19:17:36.833Z,50.84
2019-01-20T19:21:42.502Z,49.88
2019-01-20T19:25:48.271Z,49.89
2019-01-20T19:29:54.049Z,49.80
2019-01-20T19:33:59.828Z,50.02
2019-01-20T19:38:06.059Z,50.12
2019-01-20T19:42:11.801Z,50.96
2019-01-20T19:46:17.467Z,52.82
2019-01-20T19:50:23.806Z,49.73
2019-01-20T19:54:50.355Z,48.61
2019-01-20T19:58:56.112Z,52.33
2019-01-20T20:03:01.871Z,49.34
2019-01-20T20:19:47.423Z,54.48
2019-01-20T20:24:47.284Z,50.36
2019-01-20T20:28:53.001Z,50.48
2019-01-20T20:32:58.774Z,50.03
2019-01-20T20:42:50.663Z,50.19
2019-01-20T20:47:50.637Z,51.55
2019-01-20T20:57:52.185Z,49.35
2019-01-20T21:07:50.633Z,54.43
2019-01-20T21:12:49.694Z,51.87
2019-01-20T21:27:50.999Z,50.73
2019-01-20T21:32:49.154Z,50.59
2019-01-20T21:37:49.375Z,49.52
2019-01-20T21:41:55.126Z,49.76
2019-01-20T21:46:48.856Z,49.50
2019-01-20T21:56:52.300Z,48.68
2019-01-20T22:00:58.028Z,48.99
2019-01-20T22:05:05.455Z,48.55
2019-01-20T22:09:50.049Z,47.64
2019-01-20T22:14:49.753Z,50.69
2019-01-20T22:19:49.602Z,47.94
2019-01-20T22:24:49.316Z,48.97
2019-01-20T22:28:55.045Z,48.57
2019-01-20T22:33:00.739Z,50.27
2019-01-20T22:37:06.434Z,47.78
2019-01-20T22:41:51.155Z,47.90
2019-01-20T22:45:56.889Z,48.03
2019-01-20T22:50:02.582Z,52.20
2019-01-20T22:54:50.075Z,51.14
2019-01-20T22:58:55.767Z,48.23
2019-01-20T23:03:01.471Z,51.84
2019-01-20T23:11:53.207Z,51.79
2019-01-20T23:15:59.190Z,46.55
2019-01-20T23:20:08.846Z,49.37
2019-01-20T23:24:14.589Z,54.92
2019-01-20T23:28:20.338Z,56.27
2019-01-20T23:32:26.018Z,51.65
2019-01-20T23:36:31.698Z,50.84
2019-01-20T23:40:37.454Z,51.20
2019-01-20T23:44:43.125Z,49.75
2019-01-20T23:48:48.817Z,47.19
2019-01-20T23:52:54.585Z,49.53
2019-01-20T23:57:00.276Z,50.31
